Terminal Aerodrome Forecast
Issued by NWS Tampa Bay Area, FL

Home | Current Version | Previous Version | Text Only | Print | Product List | Glossary On
Versions: 1 2 3 4 5 6 7 8 9 10 11 12 13 14 15 16 17 18 19 20 21
702
FTUS42 KTBW 071720
TAFFMY
TAF
KFMY 071720Z 0718/0818 32016G25KT P6SM SKC
     FM080000 32010KT P6SM SKC
     FM080600 VRB04KT P6SM SKC
     FM081400 VRB05KT P6SM SCT250=

USA.gov is the U.S. government's official web portal to all federal, state and local government web resources and services.